Time;durP1;ratioP1;P1;durP2;ratioP2;P2;SDS_P1;SDS_P2;PMS_P1;PMS_P2;Temp;Humidity;BMP_temperature;BMP_pressure;BME280_temperature;BME280_humidity;BME280_pressure;Samples;Min_cycle;Max_cycle;Signal;HPM_P1;HPM_P2
2021/10/01 00:01:55;;;;;;;7.53;2.25;;;12.90;79.50;;;;;;5037170;28;20026;-72
2021/10/01 00:04:22;;;;;;;5.05;1.60;;;12.90;80.10;;;;;;5034684;28;20025;-74
2021/10/01 00:06:48;;;;;;;9.95;1.50;;;12.80;79.70;;;;;;5033624;28;20209;-74
2021/10/01 00:09:13;;;;;;;6.75;1.23;;;12.80;79.50;;;;;;5031887;28;20152;-75
2021/10/01 00:11:43;;;;;;;9.93;1.75;;;12.80;79.20;;;;;;5031698;28;20022;-74
2021/10/01 00:14:09;;;;;;;9.10;1.52;;;12.70;78.70;;;;;;5031694;28;20033;-75
2021/10/01 00:16:35;;;;;;;5.68;1.10;;;12.70;79.40;;;;;;5032165;28;20363;-74
2021/10/01 00:19:01;;;;;;;7.90;1.88;;;12.70;80.20;;;;;;5031649;28;20013;-75
2021/10/01 00:21:26;;;;;;;4.28;1.58;;;12.70;79.70;;;;;;5032385;28;20049;-74
2021/10/01 00:23:52;;;;;;;12.07;1.73;;;12.70;79.80;;;;;;5031830;28;20132;-75
2021/10/01 00:26:17;;;;;;;6.13;1.23;;;12.70;79.80;;;;;;5032818;28;20025;-74
2021/10/01 00:28:43;;;;;;;4.90;1.40;;;12.70;79.70;;;;;;5032961;28;20068;-75
2021/10/01 00:31:09;;;;;;;4.60;1.88;;;12.70;79.70;;;;;;5032534;28;20087;-76
2021/10/01 00:33:34;;;;;;;4.97;1.20;;;12.70;79.00;;;;;;5033027;28;20052;-76
2021/10/01 00:36:00;;;;;;;7.97;1.30;;;12.70;79.90;;;;;;5032543;28;20025;-76
2021/10/01 00:38:27;;;;;;;9.50;2.08;;;12.70;79.40;;;;;;5031604;28;20120;-73
2021/10/01 00:40:53;;;;;;;5.93;1.50;;;12.80;80.30;;;;;;5032616;28;20030;-72
2021/10/01 00:43:19;;;;;;;4.40;1.33;;;12.80;80.30;;;;;;5031611;28;20167;-75
2021/10/01 00:45:44;;;;;;;7.15;1.63;;;12.80;79.60;;;;;;5032875;28;20021;-74
2021/10/01 00:48:10;;;;;;;5.53;1.75;;;12.80;79.40;;;;;;5033543;28;20032;-74
2021/10/01 00:50:36;;;;;;;9.63;1.65;;;12.80;80.10;;;;;;5031508;28;20495;-75
2021/10/01 00:53:02;;;;;;;4.82;1.40;;;12.80;79.60;;;;;;5032347;28;20033;-75
2021/10/01 00:55:28;;;;;;;5.05;1.77;;;12.80;79.50;;;;;;5031314;28;20037;-75
2021/10/01 00:57:54;;;;;;;6.47;1.77;;;12.80;78.60;;;;;;5033092;28;20113;-73
2021/10/01 01:00:27;;;;;;;3.22;0.98;;;12.80;78.60;;;;;;5033018;28;20450;-74
2021/10/01 01:03:03;;;;;;;5.82;1.63;;;12.90;79.50;;;;;;5032967;28;20072;-75
2021/10/01 01:06:27;;;;;;;7.97;1.77;;;12.90;78.60;;;;;;5032712;28;20053;-74
2021/10/01 01:09:00;;;;;;;7.88;1.73;;;12.80;78.70;;;;;;5003827;28;20129;-75
2021/10/01 01:11:47;;;;;;;4.35;1.38;;;12.80;78.90;;;;;;5032405;28;20107;-74
2021/10/01 01:14:25;;;;;;;4.60;1.25;;;12.80;78.80;;;;;;5032136;28;20037;-73
2021/10/01 01:16:55;;;;;;;5.15;1.27;;;12.80;79.00;;;;;;5039093;28;20105;-74
2021/10/01 01:19:41;;;;;;;4.35;1.33;;;12.80;78.50;;;;;;5033975;28;20041;-74
2021/10/01 01:22:28;;;;;;;6.47;2.00;;;12.80;78.90;;;;;;5042361;28;20040;-73
2021/10/01 01:25:31;;;;;;;5.57;1.55;;;12.80;78.20;;;;;;5031346;28;20474;-75
2021/10/01 01:28:25;;;;;;;3.75;1.20;;;12.80;78.60;;;;;;5016899;28;20378;-75
2021/10/01 01:30:51;;;;;;;5.55;1.35;;;12.70;79.10;;;;;;5038965;28;20161;-74
2021/10/01 01:33:23;;;;;;;5.95;1.55;;;12.70;79.00;;;;;;5037386;28;20057;-74
2021/10/01 01:35:57;;;;;;;5.22;1.15;;;12.70;79.20;;;;;;5036067;28;20021;-75
2021/10/01 01:38:32;;;;;;;8.60;1.33;;;12.70;79.40;;;;;;5034360;28;20028;-74
2021/10/01 01:41:02;;;;;;;6.63;1.85;;;12.70;79.30;;;;;;5035781;28;20034;-75
2021/10/01 01:43:29;;;;;;;9.47;2.10;;;12.60;79.00;;;;;;5035628;28;20469;-73
2021/10/01 01:45:54;;;;;;;7.30;1.65;;;12.70;79.40;;;;;;5035659;28;20033;-74
2021/10/01 01:48:21;;;;;;;7.00;1.45;;;12.60;78.60;;;;;;5034166;28;20029;-75
2021/10/01 01:50:48;;;;;;;5.30;1.25;;;12.70;79.50;;;;;;5035602;28;20390;-74
2021/10/01 01:53:17;;;;;;;6.57;1.08;;;12.60;79.40;;;;;;5035154;28;20037;-74
2021/10/01 01:55:44;;;;;;;6.10;1.88;;;12.60;78.60;;;;;;5035506;28;20449;-73
2021/10/01 01:58:10;;;;;;;4.78;1.10;;;12.60;79.50;;;;;;5034374;28;20478;-73
2021/10/01 02:00:37;;;;;;;4.72;1.60;;;12.70;79.60;;;;;;5036386;28;20359;-74
2021/10/01 02:03:05;;;;;;;7.10;1.85;;;12.70;78.90;;;;;;5038052;28;20026;-74
2021/10/01 02:05:32;;;;;;;4.85;1.10;;;12.70;78.60;;;;;;5036870;28;20113;-74
2021/10/01 02:08:00;;;;;;;4.97;1.17;;;12.70;79.10;;;;;;5034210;28;20048;-74
2021/10/01 02:10:27;;;;;;;7.75;1.42;;;12.70;79.30;;;;;;5035368;28;20029;-75
2021/10/01 02:12:57;;;;;;;5.38;1.30;;;12.70;79.30;;;;;;5034089;28;20084;-74
2021/10/01 02:15:24;;;;;;;4.17;1.20;;;12.70;78.90;;;;;;5035328;28;20034;-74
2021/10/01 02:17:53;;;;;;;9.63;1.00;;;12.70;78.50;;;;;;5033668;28;20283;-75
2021/10/01 02:20:21;;;;;;;6.50;1.60;;;12.70;79.50;;;;;;5035048;28;20029;-74
2021/10/01 02:22:48;;;;;;;4.47;0.98;;;12.70;79.20;;;;;;5033833;28;20037;-75
2021/10/01 02:28:03;;;;;;;5.50;1.13;;;12.80;78.40;;;;;;5034967;28;20095;-74
2021/10/01 02:30:31;;;;;;;4.05;0.80;;;12.80;78.90;;;;;;5033806;28;20029;-75
2021/10/01 02:33:04;;;;;;;5.80;1.33;;;12.80;79.20;;;;;;5035249;28;20037;-75
2021/10/01 02:35:30;;;;;;;6.75;1.48;;;12.80;78.60;;;;;;5034970;28;20371;-74
2021/10/01 02:37:56;;;;;;;7.65;1.58;;;12.80;79.20;;;;;;5034698;28;20470;-74
2021/10/01 02:40:22;;;;;;;4.43;1.17;;;12.80;78.20;;;;;;5032991;28;20021;-75
2021/10/01 02:42:47;;;;;;;4.15;1.23;;;12.80;78.50;;;;;;5035149;28;20040;-75
2021/10/01 02:45:13;;;;;;;6.93;1.15;;;12.80;78.80;;;;;;5033868;28;20030;-74
2021/10/01 02:47:40;;;;;;;5.60;1.08;;;12.80;78.70;;;;;;5034794;28;20033;-75
2021/10/01 02:50:24;;;;;;;7.80;1.73;;;12.90;78.40;;;;;;5035122;28;20018;-75
2021/10/01 02:53:14;;;;;;;5.30;1.30;;;12.90;78.20;;;;;;5034726;28;20068;-74
2021/10/01 02:55:42;;;;;;;7.00;1.10;;;12.80;78.50;;;;;;5033517;28;20378;-75
2021/10/01 02:58:15;;;;;;;5.15;1.20;;;12.90;78.60;;;;;;5034350;28;20022;-75
2021/10/01 03:00:41;;;;;;;2.85;1.00;;;12.90;78.60;;;;;;5033135;28;20030;-75
2021/10/01 03:03:15;;;;;;;7.70;1.85;;;12.80;78.50;;;;;;5034435;28;20108;-75
2021/10/01 03:05:43;;;;;;;7.68;1.40;;;12.90;78.70;;;;;;5034948;28;20022;-75
2021/10/01 03:08:11;;;;;;;5.82;1.17;;;12.90;78.60;;;;;;5040469;28;20025;-74
2021/10/01 03:10:39;;;;;;;7.97;1.42;;;12.90;77.80;;;;;;5041992;28;20018;-75
2021/10/01 03:13:06;;;;;;;5.35;1.08;;;12.90;78.40;;;;;;5040578;28;20523;-75
2021/10/01 03:15:33;;;;;;;8.85;1.95;;;12.90;78.20;;;;;;5034172;28;20454;-74
2021/10/01 03:18:00;;;;;;;3.95;1.20;;;12.90;77.70;;;;;;5033826;28;20018;-74
2021/10/01 03:20:26;;;;;;;3.63;1.20;;;12.90;78.20;;;;;;5032714;28;20025;-74
2021/10/01 03:22:53;;;;;;;8.45;1.27;;;12.90;78.10;;;;;;5032823;28;20029;-76
2021/10/01 03:25:19;;;;;;;7.28;1.17;;;12.90;77.70;;;;;;5033851;28;20018;-75
2021/10/01 03:27:46;;;;;;;4.82;1.38;;;12.90;77.70;;;;;;5034026;28;20144;-75
2021/10/01 03:30:12;;;;;;;3.25;1.20;;;12.90;77.40;;;;;;5032274;28;20021;-75
2021/10/01 03:32:39;;;;;;;7.18;1.50;;;12.90;78.20;;;;;;5034933;28;20064;-74
2021/10/01 03:35:08;;;;;;;5.05;1.33;;;12.90;77.80;;;;;;5037132;28;20025;-75
2021/10/01 03:37:34;;;;;;;4.53;1.00;;;12.90;76.60;;;;;;5032683;28;20048;-73
2021/10/01 03:40:06;;;;;;;3.70;1.27;;;13.00;77.40;;;;;;5033713;28;20031;-74
2021/10/01 03:42:32;;;;;;;6.55;1.63;;;13.00;77.90;;;;;;5033619;28;20466;-74
2021/10/01 03:44:58;;;;;;;9.95;1.50;;;13.10;77.40;;;;;;5033877;28;20028;-75
2021/10/01 03:47:23;;;;;;;7.68;1.52;;;13.10;77.20;;;;;;5033714;28;20492;-75
2021/10/01 03:49:49;;;;;;;2.53;1.00;;;13.10;76.80;;;;;;5034299;28;20104;-74
2021/10/01 03:52:15;;;;;;;6.35;1.25;;;13.10;77.60;;;;;;5035096;28;20075;-73
2021/10/01 03:54:44;;;;;;;3.90;1.02;;;13.20;77.00;;;;;;5034212;28;20040;-75
2021/10/01 03:57:09;;;;;;;6.07;1.38;;;13.20;77.80;;;;;;5033959;28;20106;-76
2021/10/01 03:59:35;;;;;;;5.55;1.38;;;13.20;77.50;;;;;;5032622;28;20458;-74
2021/10/01 04:02:01;;;;;;;4.30;1.42;;;13.20;76.40;;;;;;5033679;28;20025;-74
2021/10/01 04:04:26;;;;;;;8.07;1.70;;;13.20;76.90;;;;;;5033055;28;20502;-75
2021/10/01 04:06:52;;;;;;;7.07;2.00;;;13.20;77.20;;;;;;5031814;28;20119;-74
2021/10/01 04:09:18;;;;;;;8.75;1.20;;;13.10;76.40;;;;;;5033088;28;20068;-75
2021/10/01 04:11:44;;;;;;;4.10;1.08;;;13.20;75.60;;;;;;5033291;28;20053;-74
2021/10/01 04:14:09;;;;;;;5.35;1.40;;;13.10;76.30;;;;;;5033213;28;20115;-75
2021/10/01 04:16:35;;;;;;;5.13;1.10;;;13.10;76.40;;;;;;5033220;28;20026;-74
2021/10/01 04:19:01;;;;;;;4.32;0.90;;;13.10;76.40;;;;;;5031860;28;20022;-75
2021/10/01 04:21:27;;;;;;;6.47;1.20;;;13.00;77.70;;;;;;5032615;28;20470;-72
2021/10/01 04:23:52;;;;;;;5.32;1.65;;;13.00;77.50;;;;;;5031586;28;20033;-75
2021/10/01 04:26:18;;;;;;;8.70;1.20;;;13.00;77.20;;;;;;5032934;28;20025;-75
2021/10/01 04:28:45;;;;;;;6.40;1.60;;;12.90;76.10;;;;;;5032969;28;20041;-74
2021/10/01 04:31:10;;;;;;;4.90;1.63;;;13.00;77.00;;;;;;5032547;28;20116;-74
2021/10/01 04:33:39;;;;;;;7.38;1.83;;;12.90;77.40;;;;;;5032469;28;20120;-74
2021/10/01 04:36:05;;;;;;;4.50;1.05;;;12.90;77.10;;;;;;5032619;28;20045;-74
2021/10/01 04:38:31;;;;;;;6.07;1.35;;;12.80;78.30;;;;;;5031405;28;20060;-73
2021/10/01 04:40:57;;;;;;;6.03;1.10;;;12.80;78.20;;;;;;5032744;28;20049;-75
2021/10/01 04:43:23;;;;;;;5.13;1.10;;;12.70;78.40;;;;;;5031492;28;20510;-74
2021/10/01 04:45:49;;;;;;;3.20;0.90;;;12.70;77.50;;;;;;5032903;28;20078;-75
2021/10/01 04:48:15;;;;;;;8.60;1.38;;;12.60;79.70;;;;;;5032197;28;20105;-74
2021/10/01 04:50:41;;;;;;;5.60;1.65;;;12.60;79.20;;;;;;5031873;28;20371;-75
2021/10/01 04:53:06;;;;;;;5.68;1.30;;;12.60;77.80;;;;;;5034551;28;20033;-74
2021/10/01 04:55:33;;;;;;;5.55;1.13;;;12.60;78.40;;;;;;5032982;28;20032;-74
2021/10/01 04:58:03;;;;;;;2.25;1.25;;;12.50;78.20;;;;;;5033791;28;20374;-74
2021/10/01 05:00:29;;;;;;;;;;;12.50;79.40;;;;;;5035411;28;20041;-75
2021/10/01 05:02:55;;;;;;;6.40;1.45;;;12.50;78.40;;;;;;5037621;28;19905;-73
2021/10/01 05:05:21;;;;;;;5.55;1.10;;;12.40;78.60;;;;;;5036311;28;20104;-74
2021/10/01 05:07:46;;;;;;;5.03;1.00;;;12.40;78.80;;;;;;5035482;28;20104;-75
2021/10/01 05:10:12;;;;;;;5.72;1.40;;;12.40;79.40;;;;;;5036455;28;20053;-74
2021/10/01 05:12:39;;;;;;;7.70;1.60;;;12.40;79.90;;;;;;5036449;28;20045;-74
2021/10/01 05:15:05;;;;;;;4.78;1.08;;;12.40;78.90;;;;;;5034782;28;20033;-74
2021/10/01 05:17:33;;;;;;;6.10;1.25;;;12.40;78.70;;;;;;5034544;28;20057;-74
2021/10/01 05:19:59;;;;;;;3.85;1.10;;;12.40;78.50;;;;;;5036403;28;20478;-75
2021/10/01 05:22:25;;;;;;;9.20;1.77;;;12.40;79.10;;;;;;5034445;28;20087;-74
2021/10/01 05:24:50;;;;;;;5.13;1.08;;;12.40;78.30;;;;;;5036625;28;20022;-75
2021/10/01 05:27:16;;;;;;;4.63;1.23;;;12.40;79.40;;;;;;5034833;28;20022;-74
2021/10/01 05:29:42;;;;;;;4.63;1.27;;;12.40;79.60;;;;;;5034891;28;20026;-74
2021/10/01 05:32:07;;;;;;;6.00;1.13;;;12.40;78.60;;;;;;5036335;28;20373;-75
2021/10/01 05:34:33;;;;;;;8.57;1.92;;;12.50;78.70;;;;;;5036083;28;20065;-73
2021/10/01 05:36:58;;;;;;;5.40;1.40;;;12.50;77.80;;;;;;5036473;28;20470;-74
2021/10/01 05:39:27;;;;;;;7.63;1.65;;;12.50;77.70;;;;;;5037313;28;20021;-73
2021/10/01 05:41:52;;;;;;;5.55;1.48;;;12.50;78.70;;;;;;5037885;28;20022;-72
2021/10/01 05:44:18;;;;;;;7.95;1.15;;;12.40;77.60;;;;;;5034775;28;20083;-74
2021/10/01 05:46:45;;;;;;;5.93;1.10;;;12.50;78.40;;;;;;5035632;28;20025;-73
2021/10/01 05:49:18;;;;;;;9.75;1.45;;;12.50;79.20;;;;;;5035797;28;20047;-73
2021/10/01 05:52:00;;;;;;;5.35;1.45;;;12.50;78.70;;;;;;5035732;28;20033;-73
2021/10/01 05:54:26;;;;;;;5.85;1.40;;;12.50;78.10;;;;;;5035581;28;20120;-73
2021/10/01 05:56:54;;;;;;;4.00;1.00;;;12.50;78.20;;;;;;5034482;28;20022;-74
2021/10/01 05:59:21;;;;;;;4.32;1.00;;;12.50;78.70;;;;;;5033950;28;20033;-74
2021/10/01 06:01:47;;;;;;;6.25;1.10;;;12.50;78.70;;;;;;5035581;28;20025;-74
2021/10/01 06:04:13;;;;;;;7.05;1.92;;;12.50;78.10;;;;;;5035407;28;20029;-74
2021/10/01 06:06:39;;;;;;;5.15;1.20;;;12.50;78.40;;;;;;5035319;28;20049;-74
2021/10/01 06:09:13;;;;;;;5.30;1.40;;;12.50;77.40;;;;;;5035498;28;20086;-75
2021/10/01 06:11:40;;;;;;;4.45;1.60;;;12.50;78.10;;;;;;5035570;28;20021;-74
2021/10/01 06:14:08;;;;;;;6.68;1.55;;;12.60;78.40;;;;;;5034713;28;20506;-75
2021/10/01 06:16:34;;;;;;;5.80;1.38;;;12.60;77.70;;;;;;5033056;28;20029;-74
2021/10/01 06:19:01;;;;;;;5.88;1.80;;;12.60;77.70;;;;;;5033900;28;20032;-74
2021/10/01 06:21:28;;;;;;;3.67;1.20;;;12.60;77.70;;;;;;5033507;28;20075;-75
2021/10/01 06:23:54;;;;;;;6.68;1.20;;;12.70;77.20;;;;;;5023075;28;20622;-75
2021/10/01 06:26:20;;;;;;;3.83;1.58;;;12.70;77.50;;;;;;5022472;28;20089;-75
2021/10/01 06:28:45;;;;;;;3.45;0.88;;;12.70;77.00;;;;;;5026660;28;20082;-75
2021/10/01 06:31:11;;;;;;;7.88;1.20;;;12.80;78.60;;;;;;5034099;28;20030;-74
2021/10/01 06:33:38;;;;;;;2.55;0.80;;;12.70;77.30;;;;;;5033774;28;20363;-75
2021/10/01 06:36:04;;;;;;;5.18;1.27;;;12.80;77.70;;;;;;5036873;28;20025;-74
2021/10/01 06:38:31;;;;;;;5.97;1.55;;;12.80;77.30;;;;;;5037527;28;20081;-76
2021/10/01 06:40:58;;;;;;;5.32;1.15;;;12.90;76.80;;;;;;5034441;28;20299;-75
2021/10/01 06:43:24;;;;;;;4.45;1.30;;;12.90;77.60;;;;;;5034700;28;20026;-74
2021/10/01 06:45:53;;;;;;;6.13;1.30;;;12.90;76.70;;;;;;5039279;28;20053;-75
2021/10/01 06:48:45;;;;;;;2.70;0.82;;;13.00;76.90;;;;;;5038746;28;20026;-73
2021/10/01 08:21:04;;;;;;;7.95;1.55;;;14.30;72.00;;;;;;5032975;28;20625;-75
2021/10/01 08:23:30;;;;;;;4.97;0.98;;;14.40;73.40;;;;;;5032671;28;20108;-74
2021/10/01 08:25:56;;;;;;;3.33;1.10;;;14.50;75.20;;;;;;5032628;28;20028;-74
2021/10/01 08:28:22;;;;;;;2.67;1.20;;;14.50;73.90;;;;;;5032224;28;20029;-73
2021/10/01 08:30:47;;;;;;;5.60;1.00;;;14.60;73.80;;;;;;5033185;28;20025;-74
2021/10/01 08:33:13;;;;;;;4.90;1.70;;;14.60;74.00;;;;;;5035206;28;20056;-75
2021/10/01 08:35:39;;;;;;;6.78;1.30;;;14.70;73.40;;;;;;5038269;28;20523;-73
2021/10/01 08:38:04;;;;;;;6.85;1.40;;;14.60;73.30;;;;;;5033740;28;20035;-75
2021/10/01 08:40:31;;;;;;;8.40;1.48;;;14.70;74.50;;;;;;5050969;28;20307;-75
2021/10/01 08:42:57;;;;;;;4.20;1.20;;;14.60;73.70;;;;;;5037640;28;20107;-75
2021/10/01 08:45:24;;;;;;;7.90;1.35;;;14.50;74.60;;;;;;5032346;28;20061;-74
2021/10/01 08:47:51;;;;;;;6.45;1.63;;;14.50;75.80;;;;;;5032491;28;20099;-75
2021/10/01 08:50:20;;;;;;;7.25;2.35;;;14.40;75.90;;;;;;5032324;28;20052;-74
2021/10/01 08:52:48;;;;;;;3.57;1.30;;;14.40;76.70;;;;;;5032873;28;20485;-76
2021/10/01 08:55:14;;;;;;;7.60;1.88;;;14.40;77.10;;;;;;5032895;28;20477;-74
2021/10/01 08:57:41;;;;;;;4.32;1.20;;;14.50;76.80;;;;;;5033298;28;20032;-76
2021/10/01 09:00:10;;;;;;;8.85;1.80;;;14.60;76.60;;;;;;5032859;28;20026;-75
2021/10/01 09:02:37;;;;;;;8.77;1.87;;;14.70;76.60;;;;;;5031609;28;20017;-75
2021/10/01 09:05:03;;;;;;;10.18;2.35;;;14.70;76.20;;;;;;5031283;28;20124;-75
2021/10/01 09:07:29;;;;;;;8.27;1.60;;;14.80;76.10;;;;;;5031329;28;20105;-76
2021/10/01 09:09:55;;;;;;;8.18;1.50;;;14.90;76.20;;;;;;5032800;28;20057;-74
2021/10/01 09:12:23;;;;;;;14.02;1.60;;;14.90;74.50;;;;;;5030799;28;20027;-74
2021/10/01 09:14:58;;;;;;;7.60;1.30;;;15.00;75.30;;;;;;5033605;28;20053;-74
2021/10/01 09:17:27;;;;;;;3.58;1.30;;;15.20;74.40;;;;;;5032179;28;20029;-74
2021/10/01 09:19:54;;;;;;;7.90;1.52;;;15.20;74.70;;;;;;5031233;28;20433;-74
2021/10/01 09:22:28;;;;;;;6.97;1.40;;;15.20;73.90;;;;;;5030903;28;20036;-74
2021/10/01 09:25:08;;;;;;;5.50;1.10;;;15.20;74.30;;;;;;5032332;28;20025;-74
2021/10/01 09:27:36;;;;;;;9.65;2.70;;;15.20;75.00;;;;;;5032465;28;20089;-75
2021/10/01 09:30:02;;;;;;;3.88;1.35;;;15.10;75.70;;;;;;5032266;28;20470;-74
2021/10/01 09:32:28;;;;;;;6.05;1.30;;;15.00;75.90;;;;;;5032005;28;20057;-74
2021/10/01 09:34:54;;;;;;;4.03;1.02;;;15.00;76.10;;;;;;5032662;28;20053;-75
2021/10/01 09:37:27;;;;;;;5.20;1.17;;;14.90;76.70;;;;;;5033956;28;20128;-74
2021/10/01 09:39:56;;;;;;;9.63;2.25;;;14.80;77.10;;;;;;5033450;28;20013;-75
2021/10/01 09:42:31;;;;;;;5.90;1.50;;;14.80;78.00;;;;;;5030951;28;20037;-74
2021/10/01 09:45:03;;;;;;;6.60;1.77;;;14.70;77.80;;;;;;5032097;28;20094;-74
2021/10/01 09:47:30;;;;;;;3.10;1.08;;;14.70;78.40;;;;;;5030703;28;20384;-75
2021/10/01 09:49:59;;;;;;;11.25;1.98;;;14.70;78.40;;;;;;5032827;28;20470;-74
2021/10/01 09:52:43;;;;;;;9.40;1.67;;;14.70;78.90;;;;;;5034125;28;20029;-74
2021/10/01 09:55:09;;;;;;;5.28;1.42;;;14.80;79.00;;;;;;5034587;28;20052;-75
2021/10/01 09:57:57;;;;;;;6.13;1.55;;;14.80;79.20;;;;;;5034128;28;20021;-74
2021/10/01 10:00:43;;;;;;;6.60;1.63;;;14.90;78.90;;;;;;5034310;28;20034;-75
2021/10/01 10:03:31;;;;;;;8.30;1.80;;;15.00;78.90;;;;;;5034220;28;20025;-74
2021/10/01 10:06:00;;;;;;;17.42;2.15;;;15.00;78.70;;;;;;5034566;28;20459;-76
2021/10/01 10:08:39;;;;;;;8.30;2.05;;;15.00;78.80;;;;;;5035585;28;20057;-74
2021/10/01 10:11:11;;;;;;;8.32;1.95;;;15.10;78.50;;;;;;5035010;28;20478;-75
2021/10/01 10:13:53;;;;;;;4.45;1.60;;;15.10;78.30;;;;;;5035323;28;20025;-75
2021/10/01 10:16:22;;;;;;;4.20;1.10;;;15.20;77.90;;;;;;5034745;28;20018;-74
2021/10/01 10:18:51;;;;;;;5.63;1.40;;;15.20;77.30;;;;;;5034474;28;20053;-75
2021/10/01 10:21:17;;;;;;;3.75;1.00;;;15.30;77.40;;;;;;5035454;28;20022;-75
2021/10/01 10:23:43;;;;;;;5.95;1.30;;;15.50;76.70;;;;;;5038665;28;20030;-75
2021/10/01 10:26:09;;;;;;;9.48;1.83;;;15.60;76.70;;;;;;5047860;28;20081;-73
2021/10/01 10:28:38;;;;;;;5.53;1.27;;;15.80;76.80;;;;;;5037753;28;20052;-75
2021/10/01 10:31:05;;;;;;;6.40;1.30;;;16.00;75.80;;;;;;5049934;28;20026;-75
2021/10/01 10:33:48;;;;;;;7.97;1.63;;;16.40;76.00;;;;;;5040710;28;20026;-74
2021/10/01 10:36:33;;;;;;;2.60;0.88;;;16.90;74.00;;;;;;5033722;28;20053;-74
2021/10/01 10:39:11;;;;;;;4.70;1.05;;;17.30;71.30;;;;;;5034007;28;20022;-75
2021/10/01 10:41:37;;;;;;;7.03;2.03;;;17.40;69.50;;;;;;5033413;28;20051;-75
2021/10/01 10:44:03;;;;;;;4.05;0.85;;;17.30;68.50;;;;;;5035035;28;20051;-75
2021/10/01 10:46:35;;;;;;;11.75;1.92;;;17.30;69.90;;;;;;5035167;28;20080;-75
2021/10/01 10:49:22;;;;;;;4.10;0.80;;;17.40;69.40;;;;;;5034795;28;20105;-75
2021/10/01 10:52:06;;;;;;;4.65;0.93;;;17.40;68.00;;;;;;5033413;28;20068;-75
2021/10/01 10:54:35;;;;;;;5.75;1.50;;;17.30;69.40;;;;;;5034575;28;20038;-75
2021/10/01 10:57:16;;;;;;;4.78;1.15;;;17.30;68.90;;;;;;5034650;28;20022;-75
2021/10/01 10:59:53;;;;;;;6.43;1.40;;;17.30;69.60;;;;;;5034853;28;20092;-74
2021/10/01 11:05:27;;;;;;;7.10;1.10;;;17.40;68.70;;;;;;5037156;28;20033;-74
2021/10/01 11:07:57;;;;;;;7.97;1.67;;;17.40;68.80;;;;;;5035043;28;20025;-73
2021/10/01 11:10:32;;;;;;;;;;;17.40;68.90;;;;;;5034825;28;20033;-75
2021/10/01 11:13:21;;;;;;;4.25;1.13;;;17.40;69.90;;;;;;5033164;28;19921;-74
2021/10/01 11:16:08;;;;;;;5.85;1.70;;;17.40;68.30;;;;;;5034406;28;20367;-76
2021/10/01 11:18:49;;;;;;;5.80;1.30;;;17.30;69.00;;;;;;5033365;28;20086;-74
2021/10/01 11:21:27;;;;;;;7.15;1.10;;;17.30;67.80;;;;;;5033041;28;20029;-74
2021/10/01 11:24:11;;;;;;;4.22;1.42;;;17.20;70.20;;;;;;5034047;28;20461;-75
2021/10/01 11:26:41;;;;;;;6.82;1.35;;;17.20;70.80;;;;;;5034054;28;20025;-75
2021/10/01 11:29:31;;;;;;;6.25;1.30;;;17.10;69.10;;;;;;5032589;28;20029;-75
2021/10/01 11:32:08;;;;;;;;;;;17.20;67.50;;;;;;5034537;28;20478;-75
2021/10/01 11:34:43;;;;;;;5.57;1.08;;;17.30;69.90;;;;;;5033741;28;19921;-75
2021/10/01 11:37:38;;;;;;;7.10;1.25;;;17.40;68.80;;;;;;5035497;28;20030;-75
2021/10/01 11:40:27;;;;;;;9.73;1.42;;;17.40;67.80;;;;;;5034902;28;20022;-75
2021/10/01 11:42:58;;;;;;;4.63;1.33;;;17.40;67.80;;;;;;5031637;28;20466;-75
2021/10/01 11:45:25;;;;;;;5.38;1.25;;;17.30;66.80;;;;;;5033308;28;20299;-75
2021/10/01 11:48:05;;;;;;;3.92;1.10;;;17.20;68.90;;;;;;5033901;28;20095;-75
2021/10/01 11:50:37;;;;;;;3.17;0.90;;;17.10;69.80;;;;;;5033310;28;20025;-75
2021/10/01 11:53:05;;;;;;;3.00;1.20;;;17.10;70.50;;;;;;5032607;28;20390;-74
2021/10/01 11:55:35;;;;;;;7.78;1.75;;;17.10;71.40;;;;;;5031893;28;20053;-75
2021/10/01 11:58:02;;;;;;;9.10;1.88;;;17.00;69.20;;;;;;5032418;28;20018;-74
2021/10/01 12:00:29;;;;;;;6.65;1.23;;;17.00;71.10;;;;;;5032179;28;20056;-74
2021/10/01 12:02:55;;;;;;;5.15;0.93;;;16.90;72.00;;;;;;5033161;28;20095;-74
2021/10/01 12:05:32;;;;;;;5.57;1.33;;;16.90;72.80;;;;;;5033410;28;20065;-75
2021/10/01 12:08:07;;;;;;;7.97;2.00;;;17.00;73.00;;;;;;5032123;28;20030;-74
2021/10/01 12:10:39;;;;;;;5.32;0.80;;;17.00;70.80;;;;;;5032480;28;20029;-74
2021/10/01 12:13:04;;;;;;;3.45;0.98;;;17.00;72.40;;;;;;5034686;28;20041;-76
2021/10/01 12:15:36;;;;;;;5.05;1.02;;;17.10;72.10;;;;;;5049805;28;20028;-72
2021/10/01 12:18:02;;;;;;;5.13;1.15;;;17.10;72.60;;;;;;5039719;28;20049;-75
2021/10/01 12:20:28;;;;;;;4.63;1.20;;;17.20;70.90;;;;;;5052290;28;20041;-74
2021/10/01 12:22:54;;;;;;;5.28;1.80;;;17.20;70.50;;;;;;5033379;28;20462;-75
2021/10/01 12:25:26;;;;;;;6.25;1.10;;;17.20;72.10;;;;;;5033124;28;20473;-74
2021/10/01 12:27:51;;;;;;;5.30;1.17;;;17.30;71.40;;;;;;5031776;28;20079;-74
2021/10/01 12:30:17;;;;;;;5.22;1.52;;;17.30;71.70;;;;;;5035090;28;20053;-74
2021/10/01 12:32:47;;;;;;;3.53;0.95;;;17.40;70.90;;;;;;5034706;28;20026;-75
2021/10/01 12:35:13;;;;;;;8.30;1.63;;;17.40;71.90;;;;;;5031540;28;20065;-75
2021/10/01 12:37:40;;;;;;;12.13;2.30;;;17.40;70.30;;;;;;5032218;28;20526;-75
2021/10/01 12:40:07;;;;;;;6.40;1.95;;;17.50;71.00;;;;;;5032610;28;20113;-75
2021/10/01 12:42:35;;;;;;;6.25;1.67;;;17.40;70.70;;;;;;5032010;28;20439;-75
2021/10/01 12:45:06;;;;;;;6.25;1.52;;;17.50;70.70;;;;;;5032737;28;20112;-74
2021/10/01 12:47:34;;;;;;;5.93;1.50;;;17.50;69.50;;;;;;5032911;28;20017;-73
2021/10/01 12:50:15;;;;;;;6.75;1.50;;;17.60;67.50;;;;;;5041585;28;20125;-73
2021/10/01 12:52:53;;;;;;;4.85;1.10;;;17.60;66.20;;;;;;5042184;28;20081;-73
2021/10/01 12:55:19;;;;;;;5.75;1.13;;;17.60;68.50;;;;;;5033834;28;20032;-74
2021/10/01 12:57:47;;;;;;;5.20;1.02;;;17.60;65.40;;;;;;5032586;28;20036;-74
2021/10/01 13:00:20;;;;;;;4.25;1.10;;;17.60;67.10;;;;;;5032476;28;20025;-75
2021/10/01 13:03:12;;;;;;;4.05;1.13;;;17.60;66.20;;;;;;5038225;28;20089;-74
2021/10/01 13:05:39;;;;;;;3.72;1.33;;;17.70;66.00;;;;;;5031884;28;20339;-75
2021/10/01 13:08:05;;;;;;;9.15;1.70;;;17.70;64.30;;;;;;5031372;28;20386;-75
2021/10/01 13:10:49;;;;;;;2.97;0.85;;;17.80;65.00;;;;;;5030705;28;20025;-76
2021/10/01 13:13:21;;;;;;;4.30;1.00;;;17.80;64.40;;;;;;5030781;28;20034;-75
2021/10/01 13:15:51;;;;;;;8.93;1.58;;;17.70;66.50;;;;;;5032294;28;20061;-74
2021/10/01 13:18:20;;;;;;;;;;;17.80;67.00;;;;;;5031352;28;20026;-76
2021/10/01 13:21:01;;;;;;;4.63;1.10;;;17.70;65.00;;;;;;5020279;28;20267;-75
2021/10/01 13:23:49;;;;;;;5.43;1.20;;;17.70;66.10;;;;;;5011383;28;20116;-74
2021/10/01 13:26:40;;;;;;;5.30;1.30;;;17.60;64.30;;;;;;5014338;28;20057;-75
2021/10/01 13:29:10;;;;;;;5.78;1.40;;;17.60;66.60;;;;;;5014261;28;20104;-75
2021/10/01 13:31:42;;;;;;;7.90;1.15;;;17.60;64.90;;;;;;5015761;28;20018;-75
2021/10/01 13:34:08;;;;;;;4.18;1.00;;;17.60;66.90;;;;;;5015686;28;20095;-75
2021/10/01 13:36:34;;;;;;;6.75;1.27;;;17.60;66.10;;;;;;5014592;28;20026;-75
2021/10/01 13:39:00;;;;;;;5.00;1.10;;;17.60;66.60;;;;;;5017281;28;20065;-74
2021/10/01 13:41:26;;;;;;;3.97;0.90;;;17.60;67.20;;;;;;5015751;28;20489;-75
2021/10/01 13:43:52;;;;;;;5.18;1.30;;;17.60;65.60;;;;;;5015750;28;20026;-74
2021/10/01 13:46:21;;;;;;;5.78;1.20;;;17.60;66.60;;;;;;5015667;28;20038;-75
2021/10/01 13:48:47;;;;;;;4.47;1.30;;;17.50;66.80;;;;;;5015281;28;20470;-72
2021/10/01 13:51:14;;;;;;;6.13;1.20;;;17.60;65.60;;;;;;5015157;28;20018;-75
2021/10/01 13:53:40;;;;;;;7.93;1.48;;;17.60;66.70;;;;;;5015303;28;20026;-75
2021/10/01 13:56:06;;;;;;;6.35;1.30;;;17.60;64.60;;;;;;5015301;28;20107;-74
2021/10/01 13:58:32;;;;;;;3.95;1.35;;;17.60;67.20;;;;;;5015199;28;20049;-75
2021/10/01 14:00:58;;;;;;;3.80;1.00;;;17.70;66.00;;;;;;5014581;28;20033;-75
2021/10/01 14:03:24;;;;;;;4.93;1.52;;;17.70;67.20;;;;;;5013962;28;20033;-74
2021/10/01 14:05:51;;;;;;;8.75;1.33;;;17.70;64.40;;;;;;5013993;28;20104;-74
2021/10/01 14:08:17;;;;;;;3.78;1.05;;;17.70;67.00;;;;;;5015278;28;20061;-75
2021/10/01 14:10:44;;;;;;;5.43;1.30;;;17.70;66.10;;;;;;5015089;28;20026;-75
2021/10/01 14:13:11;;;;;;;7.80;1.77;;;17.70;67.50;;;;;;5013675;28;20041;-75
2021/10/01 14:15:39;;;;;;;6.88;1.25;;;17.70;65.00;;;;;;5013742;28;20449;-75
2021/10/01 14:18:05;;;;;;;5.63;1.67;;;17.70;66.10;;;;;;5015353;28;20036;-75
2021/10/01 14:20:37;;;;;;;3.60;1.20;;;17.60;64.40;;;;;;5013650;28;20125;-76
2021/10/01 14:23:04;;;;;;;7.45;1.20;;;17.60;65.40;;;;;;5019570;28;20060;-74
2021/10/01 14:25:30;;;;;;;4.78;1.08;;;17.70;67.80;;;;;;5017429;28;20030;-75
2021/10/01 14:27:56;;;;;;;6.78;1.30;;;17.70;65.40;;;;;;5021972;28;20497;-74
2021/10/01 14:30:26;;;;;;;6.22;1.60;;;17.60;66.40;;;;;;5016619;28;20296;-74
2021/10/01 14:32:53;;;;;;;3.58;1.13;;;17.70;67.30;;;;;;5013821;28;20025;-75
2021/10/01 14:35:19;;;;;;;7.72;1.23;;;17.70;67.60;;;;;;5015272;28;20072;-74
2021/10/01 14:37:45;;;;;;;3.45;1.08;;;17.70;67.50;;;;;;5019533;28;20026;-74